createdAt,value
2023-05-06T00:01:03.608Z,12.29
2023-05-06T00:03:06.982Z,12.30
2023-05-06T00:05:11.022Z,12.32
2023-05-06T00:07:14.597Z,12.31
2023-05-06T00:09:17.994Z,12.30
2023-05-06T00:11:22.974Z,12.29
2023-05-06T00:13:26.043Z,12.24
2023-05-06T00:15:30.880Z,12.21
2023-05-06T00:17:35.581Z,12.14
2023-05-06T00:19:39.173Z,12.10
2023-05-06T00:21:42.737Z,12.08
2023-05-06T00:23:46.052Z,12.07
2023-05-06T00:25:49.344Z,12.04
2023-05-06T00:27:54.586Z,12.01
2023-05-06T00:29:59.032Z,11.98
2023-05-06T00:32:02.409Z,11.97
2023-05-06T00:34:05.775Z,11.95
2023-05-06T00:36:09.729Z,11.92
2023-05-06T00:38:15.340Z,11.91
2023-05-06T00:40:19.174Z,11.89
2023-05-06T00:42:23.748Z,11.88
2023-05-06T00:44:28.489Z,11.87
2023-05-06T00:46:31.866Z,11.85
2023-05-06T00:48:35.675Z,11.83
2023-05-06T00:50:41.559Z,11.80
2023-05-06T00:52:45.259Z,11.79
2023-05-06T00:54:48.673Z,11.77
2023-05-06T00:56:52.034Z,11.78
2023-05-06T00:58:56.032Z,11.78
2023-05-06T01:01:02.035Z,11.80
2023-05-06T01:03:05.938Z,11.79
2023-05-06T01:05:10.956Z,11.75
2023-05-06T01:07:28.005Z,11.65
2023-05-06T01:09:39.739Z,11.60
2023-05-06T01:11:47.452Z,11.61
2023-05-06T01:13:58.258Z,11.66
2023-05-06T01:16:04.209Z,11.70
2023-05-06T01:18:12.142Z,11.76
2023-05-06T01:20:16.515Z,11.80
2023-05-06T01:22:20.789Z,11.79
2023-05-06T01:24:36.670Z,11.74
2023-05-06T01:26:42.708Z,11.71
2023-05-06T01:28:46.405Z,11.70
2023-05-06T01:30:56.927Z,11.63
2023-05-06T01:33:08.050Z,11.59
2023-05-06T01:35:19.926Z,11.60
2023-05-06T01:37:29.432Z,11.63
2023-05-06T01:39:35.651Z,11.63
2023-05-06T01:41:41.764Z,11.63
2023-05-06T01:43:50.431Z,11.65
2023-05-06T01:45:56.418Z,11.66
2023-05-06T01:48:00.640Z,11.69
2023-05-06T01:50:05.976Z,11.68
2023-05-06T01:52:10.436Z,11.64
2023-05-06T01:54:14.312Z,11.63
2023-05-06T01:56:19.167Z,11.65
2023-05-06T01:58:22.807Z,11.66
2023-05-06T02:00:26.947Z,11.68
2023-05-06T02:02:30.587Z,11.71
2023-05-06T02:04:33.999Z,11.69
2023-05-06T02:06:37.531Z,11.67
2023-05-06T02:08:41.989Z,11.68
2023-05-06T02:10:49.299Z,11.67
2023-05-06T02:12:56.259Z,11.64
2023-05-06T02:14:59.300Z,11.59
2023-05-06T02:17:05.234Z,11.56
2023-05-06T02:19:08.958Z,11.52
2023-05-06T02:21:12.547Z,11.50
2023-05-06T02:23:15.999Z,11.46
2023-05-06T02:25:19.756Z,11.47
2023-05-06T02:27:23.410Z,11.49
2023-05-06T02:29:28.402Z,11.51
2023-05-06T02:31:33.231Z,11.53
2023-05-06T02:33:36.854Z,11.51
2023-05-06T02:35:41.177Z,11.49
2023-05-06T02:37:45.701Z,11.49
2023-05-06T02:39:49.393Z,11.45
2023-05-06T02:41:53.175Z,11.40
2023-05-06T02:43:56.735Z,11.38
2023-05-06T02:46:02.093Z,11.37
2023-05-06T02:48:06.419Z,11.40
2023-05-06T02:50:10.353Z,11.41
2023-05-06T02:52:14.044Z,11.41
2023-05-06T02:54:17.641Z,11.37
2023-05-06T02:56:21.251Z,11.34
2023-05-06T02:58:26.421Z,11.32
2023-05-06T03:00:30.040Z,11.29
2023-05-06T03:02:35.247Z,11.29
2023-05-06T03:04:38.879Z,11.29
2023-05-06T03:06:42.540Z,11.27
2023-05-06T03:08:46.219Z,11.28
2023-05-06T03:10:50.515Z,11.31
2023-05-06T03:12:56.289Z,11.31
2023-05-06T03:14:59.871Z,11.28
2023-05-06T03:17:03.853Z,11.27
2023-05-06T03:19:11.705Z,11.27
2023-05-06T03:21:15.986Z,11.28
2023-05-06T03:23:22.069Z,11.30
2023-05-06T03:25:26.198Z,11.27
2023-05-06T03:27:30.511Z,11.26
2023-05-06T03:29:39.414Z,11.26
2023-05-06T03:31:44.863Z,11.26
2023-05-06T03:33:49.861Z,11.21
2023-05-06T03:35:55.527Z,11.17
2023-05-06T03:37:59.272Z,11.16
2023-05-06T03:40:10.487Z,11.20
2023-05-06T03:42:14.499Z,11.20
2023-05-06T03:44:18.317Z,11.20
2023-05-06T03:46:22.091Z,11.18
2023-05-06T03:48:26.098Z,11.17
2023-05-06T03:50:31.228Z,11.17
2023-05-06T03:52:36.360Z,11.14
2023-05-06T03:54:40.886Z,11.09
2023-05-06T03:56:44.822Z,11.06
2023-05-06T03:58:49.124Z,11.05
2023-05-06T04:00:53.719Z,11.03
2023-05-06T04:02:57.311Z,11.05
2023-05-06T04:05:18.183Z,11.05
2023-05-06T04:07:22.608Z,11.05
2023-05-06T04:09:28.641Z,11.05
2023-05-06T04:11:32.680Z,11.05
2023-05-06T04:13:38.523Z,11.05
2023-05-06T04:15:49.782Z,10.99
2023-05-06T04:17:58.382Z,10.94
2023-05-06T04:20:07.344Z,10.95
2023-05-06T04:22:11.528Z,10.98
2023-05-06T04:24:16.234Z,10.99
2023-05-06T04:26:21.283Z,11.00
2023-05-06T04:28:25.378Z,10.99
2023-05-06T04:30:31.035Z,10.99
2023-05-06T04:32:35.283Z,11.01
2023-05-06T04:34:40.706Z,11.02
2023-05-06T04:36:49.706Z,11.04
2023-05-06T04:39:06.844Z,11.04
2023-05-06T04:41:12.242Z,11.04
2023-05-06T04:43:17.900Z,11.05
2023-05-06T04:45:24.653Z,11.01
2023-05-06T04:47:29.297Z,10.97
2023-05-06T04:49:33.220Z,10.97
2023-05-06T04:51:38.388Z,10.97
2023-05-06T04:53:42.653Z,10.96
2023-05-06T04:55:46.560Z,10.96
2023-05-06T04:57:50.547Z,10.95
2023-05-06T04:59:55.606Z,10.95
2023-05-06T05:01:59.270Z,10.95
2023-05-06T05:04:03.002Z,10.97
2023-05-06T05:06:07.517Z,10.99
2023-05-06T05:08:13.493Z,11.00
2023-05-06T05:10:17.665Z,10.95
2023-05-06T05:12:21.486Z,10.91
2023-05-06T05:14:27.624Z,10.87
2023-05-06T05:16:33.029Z,10.84
2023-05-06T05:18:38.674Z,10.89
2023-05-06T05:20:49.486Z,10.91
2023-05-06T05:22:54.421Z,10.97
2023-05-06T05:24:58.318Z,10.97
2023-05-06T05:27:02.483Z,10.96
2023-05-06T05:29:06.759Z,10.94
2023-05-06T05:31:10.801Z,10.99
2023-05-06T05:33:16.639Z,11.08
2023-05-06T05:35:22.476Z,11.20
2023-05-06T05:37:28.559Z,11.29
2023-05-06T05:39:32.231Z,11.40
2023-05-06T05:41:36.680Z,11.49
2023-05-06T05:43:40.383Z,11.59
2023-05-06T05:45:44.452Z,11.69
2023-05-06T05:47:48.765Z,11.76
2023-05-06T05:49:54.789Z,11.83
2023-05-06T05:51:59.947Z,11.92
2023-05-06T05:54:05.432Z,11.99
2023-05-06T05:56:09.962Z,12.07
2023-05-06T05:58:14.183Z,12.21
2023-05-06T06:00:21.572Z,12.38
2023-05-06T06:02:29.293Z,12.57
2023-05-06T06:04:33.986Z,12.76
2023-05-06T06:06:39.205Z,12.97
2023-05-06T06:08:42.858Z,13.09
2023-05-06T06:10:47.571Z,13.15
2023-05-06T06:12:56.370Z,13.18
2023-05-06T06:15:03.903Z,13.20
2023-05-06T06:17:08.034Z,13.32
2023-05-06T06:19:11.772Z,13.45
2023-05-06T06:21:15.881Z,13.43
2023-05-06T06:23:21.107Z,13.34
2023-05-06T06:25:24.953Z,13.31
2023-05-06T06:27:28.685Z,13.30
2023-05-06T06:29:32.467Z,13.26
2023-05-06T06:31:38.356Z,13.24
2023-05-06T06:33:43.441Z,13.23
2023-05-06T06:35:47.598Z,13.23
2023-05-06T06:37:51.266Z,13.26
2023-05-06T06:39:56.315Z,13.31
2023-05-06T06:42:00.207Z,13.26
2023-05-06T06:44:11.982Z,13.24
2023-05-06T06:46:15.349Z,13.22
2023-05-06T06:48:18.764Z,13.17
2023-05-06T06:50:22.498Z,13.16
2023-05-06T06:52:25.915Z,13.17
2023-05-06T06:54:29.357Z,13.16
2023-05-06T06:56:34.122Z,13.18
2023-05-06T06:58:37.575Z,13.21
2023-05-06T07:00:40.910Z,13.27
2023-05-06T07:02:44.514Z,13.27
2023-05-06T07:04:47.949Z,13.25
2023-05-06T07:06:51.360Z,13.26
2023-05-06T07:08:54.752Z,13.32
2023-05-06T07:10:58.083Z,13.41
2023-05-06T07:13:03.135Z,13.47
2023-05-06T07:15:08.222Z,13.54
2023-05-06T07:17:11.928Z,13.64
2023-05-06T07:19:15.555Z,13.73
2023-05-06T07:21:19.052Z,13.82
2023-05-06T07:23:22.636Z,13.86
2023-05-06T07:25:27.572Z,13.78
2023-05-06T07:27:31.893Z,13.65
2023-05-06T07:29:37.556Z,13.54
2023-05-06T07:31:41.050Z,13.53
2023-05-06T07:33:44.442Z,13.52
2023-05-06T07:35:47.805Z,13.49
2023-05-06T07:37:51.687Z,13.52
2023-05-06T07:39:55.221Z,13.49
2023-05-06T07:41:58.631Z,13.48
2023-05-06T07:44:02.183Z,13.50
2023-05-06T07:46:07.506Z,13.45
2023-05-06T07:48:11.070Z,13.45
2023-05-06T07:50:14.452Z,13.49
2023-05-06T07:52:17.835Z,13.48
2023-05-06T07:54:21.157Z,13.51
2023-05-06T07:56:24.672Z,13.58
2023-05-06T07:58:28.345Z,13.68
2023-05-06T08:00:32.136Z,13.78
2023-05-06T08:02:38.741Z,13.84
2023-05-06T08:04:42.958Z,13.86
2023-05-06T08:06:46.553Z,13.87
2023-05-06T08:08:49.871Z,13.90
2023-05-06T08:10:53.247Z,13.91
2023-05-06T08:12:56.703Z,13.91
2023-05-06T08:15:00.185Z,13.98
2023-05-06T08:17:03.667Z,14.03
2023-05-06T08:19:08.753Z,14.09
2023-05-06T08:21:11.858Z,14.13
2023-05-06T08:23:15.378Z,14.15
2023-05-06T08:25:19.600Z,14.18
2023-05-06T08:27:23.293Z,14.21
2023-05-06T08:29:26.625Z,14.24
2023-05-06T08:31:30.380Z,14.27
2023-05-06T08:33:33.967Z,14.27
2023-05-06T08:35:38.720Z,14.30
2023-05-06T08:37:41.987Z,14.35
2023-05-06T08:39:45.736Z,14.42
2023-05-06T08:41:51.651Z,14.47
2023-05-06T08:43:56.353Z,14.46
2023-05-06T08:45:59.968Z,14.42
2023-05-06T08:48:03.762Z,14.37
2023-05-06T08:50:08.304Z,14.35
2023-05-06T08:52:13.461Z,14.38
2023-05-06T08:54:17.258Z,14.36
2023-05-06T08:56:23.422Z,14.31
2023-05-06T08:58:28.319Z,14.29
2023-05-06T09:00:31.354Z,14.24
2023-05-06T09:02:34.892Z,14.28
2023-05-06T09:04:38.673Z,14.31
2023-05-06T09:06:42.057Z,14.36
2023-05-06T09:08:46.845Z,14.46
2023-05-06T09:10:50.307Z,14.50
2023-05-06T09:12:56.306Z,14.48
2023-05-06T09:14:59.672Z,14.40
2023-05-06T09:17:03.403Z,14.34
2023-05-06T09:19:07.099Z,14.34
2023-05-06T09:21:10.480Z,14.32
2023-05-06T09:23:15.810Z,14.21
2023-05-06T09:25:20.648Z,14.15
2023-05-06T09:27:24.955Z,14.10
2023-05-06T09:29:28.837Z,14.03
2023-05-06T09:31:33.252Z,13.98
2023-05-06T09:33:37.857Z,14.02
2023-05-06T09:35:43.412Z,14.16
2023-05-06T09:37:47.096Z,14.30
2023-05-06T09:39:51.528Z,14.37
2023-05-06T09:41:56.920Z,14.44
2023-05-06T09:44:01.016Z,14.47
2023-05-06T09:46:06.389Z,14.55
2023-05-06T09:48:10.525Z,14.65
2023-05-06T09:50:15.732Z,14.65
2023-05-06T09:52:21.025Z,14.56
2023-05-06T09:54:26.688Z,14.60
2023-05-06T09:56:32.432Z,14.66
2023-05-06T09:58:37.774Z,14.65
2023-05-06T10:00:42.609Z,14.64
2023-05-06T10:02:48.131Z,14.69
2023-05-06T10:04:52.421Z,14.74
2023-05-06T10:06:58.097Z,14.79
2023-05-06T10:09:02.595Z,14.85
2023-05-06T10:11:07.792Z,14.89
2023-05-06T10:13:12.178Z,14.94
2023-05-06T10:15:17.550Z,14.93
2023-05-06T10:17:25.654Z,14.88
2023-05-06T10:19:30.030Z,14.90
2023-05-06T10:21:37.431Z,14.92
2023-05-06T10:23:45.842Z,14.90
2023-05-06T10:25:52.955Z,14.93
2023-05-06T10:27:57.072Z,14.97
2023-05-06T10:30:02.114Z,15.02
2023-05-06T10:32:11.104Z,15.02
2023-05-06T10:34:14.886Z,15.01
2023-05-06T10:36:21.650Z,15.03
2023-05-06T10:38:31.314Z,15.04
2023-05-06T10:40:35.199Z,15.05
2023-05-06T10:42:38.985Z,15.04
2023-05-06T10:44:58.829Z,15.10
2023-05-06T10:47:02.893Z,15.16
2023-05-06T10:49:20.574Z,15.08
2023-05-06T10:51:29.645Z,15.00
2023-05-06T10:54:02.760Z,15.00
2023-05-06T10:56:10.553Z,15.08
2023-05-06T10:58:16.140Z,15.18
2023-05-06T11:00:20.712Z,15.32
2023-05-06T11:02:25.501Z,15.39
2023-05-06T11:04:31.805Z,15.47
2023-05-06T11:06:37.410Z,15.40
2023-05-06T11:08:41.464Z,15.36
2023-05-06T11:10:45.322Z,15.27
2023-05-06T11:12:50.549Z,15.21
2023-05-06T11:14:55.209Z,15.27
2023-05-06T11:17:01.800Z,15.22
2023-05-06T11:19:05.978Z,15.27
2023-05-06T11:21:42.361Z,15.26
2023-05-06T11:24:14.260Z,15.22
2023-05-06T11:26:17.960Z,15.22
2023-05-06T11:28:22.630Z,15.16
2023-05-06T11:30:26.662Z,15.05
2023-05-06T11:32:31.283Z,14.98
2023-05-06T11:34:35.594Z,14.92
2023-05-06T11:36:48.180Z,14.87
2023-05-06T11:38:53.223Z,14.94
2023-05-06T11:40:56.975Z,14.99
2023-05-06T11:43:12.296Z,15.01
2023-05-06T11:45:17.074Z,15.05
2023-05-06T11:47:23.885Z,15.13
2023-05-06T11:49:28.534Z,15.20
2023-05-06T11:51:32.795Z,15.30
2023-05-06T11:53:38.776Z,15.32
2023-05-06T11:55:42.371Z,15.34
2023-05-06T11:57:47.189Z,15.42
2023-05-06T11:59:55.737Z,15.50
2023-05-06T12:02:01.124Z,15.51
2023-05-06T12:04:04.922Z,15.50
2023-05-06T12:06:09.923Z,15.40
2023-05-06T12:08:23.521Z,15.32
2023-05-06T12:10:31.441Z,15.32
2023-05-06T12:12:35.301Z,15.39
2023-05-06T12:14:39.848Z,15.49
2023-05-06T12:16:46.975Z,15.71
2023-05-06T12:18:50.960Z,15.77
2023-05-06T12:20:55.868Z,15.81
2023-05-06T12:23:08.690Z,15.74
2023-05-06T12:25:16.058Z,15.62
2023-05-06T12:27:35.070Z,15.52
2023-05-06T12:29:38.785Z,15.53
2023-05-06T12:31:43.343Z,15.53
2023-05-06T12:33:49.186Z,15.52
2023-05-06T12:35:54.873Z,15.55
2023-05-06T12:37:59.589Z,15.72
2023-05-06T12:40:04.133Z,15.85
2023-05-06T12:42:08.339Z,15.97
2023-05-06T12:44:39.034Z,16.06
2023-05-06T12:46:52.892Z,16.18
2023-05-06T12:49:00.882Z,16.29
2023-05-06T12:51:19.436Z,16.21
2023-05-06T12:53:33.511Z,16.35
2023-05-06T12:55:38.035Z,16.47
2023-05-06T12:57:41.790Z,16.43
2023-05-06T12:59:47.634Z,16.30
2023-05-06T13:01:51.561Z,16.26
2023-05-06T13:03:56.810Z,16.31
2023-05-06T13:06:00.395Z,16.29
2023-05-06T13:08:04.696Z,16.24
2023-05-06T13:10:09.505Z,16.20
2023-05-06T13:12:13.525Z,16.14
2023-05-06T13:14:17.739Z,16.04
2023-05-06T13:16:22.949Z,16.01
2023-05-06T13:18:26.810Z,15.99
2023-05-06T13:20:30.698Z,15.97
2023-05-06T13:22:50.673Z,15.84
2023-05-06T13:24:57.293Z,15.67
2023-05-06T13:27:01.262Z,15.46
2023-05-06T13:29:05.306Z,15.34
2023-05-06T13:31:09.599Z,15.28
2023-05-06T13:33:17.063Z,15.18
2023-05-06T13:35:20.657Z,15.12
2023-05-06T13:37:24.356Z,15.08
2023-05-06T13:39:27.967Z,15.10
2023-05-06T13:41:32.076Z,15.12
2023-05-06T13:43:35.671Z,15.07
2023-05-06T13:45:39.416Z,15.02
2023-05-06T13:47:44.422Z,14.91
2023-05-06T13:49:49.588Z,14.81
2023-05-06T13:51:53.735Z,14.76
2023-05-06T13:53:57.448Z,14.74
2023-05-06T13:56:01.219Z,14.78
2023-05-06T13:58:05.677Z,14.90
2023-05-06T14:00:11.173Z,14.98
2023-05-06T14:02:14.887Z,15.04
2023-05-06T14:04:18.558Z,15.10
2023-05-06T14:06:23.772Z,15.16
2023-05-06T14:08:27.353Z,15.26
2023-05-06T14:10:31.011Z,15.19
2023-05-06T14:12:34.978Z,15.19
2023-05-06T14:14:38.624Z,15.22
2023-05-06T14:16:42.458Z,15.19
2023-05-06T14:18:46.237Z,15.22
2023-05-06T14:20:49.911Z,15.31
2023-05-06T14:22:54.977Z,15.35
2023-05-06T14:24:58.566Z,15.35
2023-05-06T14:27:02.058Z,15.27
2023-05-06T14:29:05.705Z,15.22
2023-05-06T14:31:09.567Z,15.26
2023-05-06T14:33:13.585Z,15.19
2023-05-06T14:35:17.334Z,15.20
2023-05-06T14:37:21.006Z,15.11
2023-05-06T14:39:26.214Z,15.06
2023-05-06T14:41:29.772Z,15.06
2023-05-06T14:43:33.343Z,15.11
2023-05-06T14:45:36.994Z,15.16
2023-05-06T14:47:41.480Z,15.16
2023-05-06T14:49:45.365Z,15.20
2023-05-06T14:51:50.117Z,15.32
2023-05-06T14:53:53.808Z,15.36
2023-05-06T14:55:58.711Z,15.21
2023-05-06T14:58:02.282Z,15.09
2023-05-06T15:00:10.190Z,14.99
2023-05-06T15:02:14.121Z,14.95
2023-05-06T15:04:17.916Z,14.99
2023-05-06T15:06:21.525Z,15.12
2023-05-06T15:08:25.345Z,15.25
2023-05-06T15:10:28.959Z,15.35
2023-05-06T15:12:34.685Z,15.35
2023-05-06T15:14:38.277Z,15.28
2023-05-06T15:16:41.979Z,15.22
2023-05-06T15:18:45.793Z,15.24
2023-05-06T15:20:49.293Z,15.29
2023-05-06T15:22:52.842Z,15.33
2023-05-06T15:24:57.074Z,15.27
2023-05-06T15:27:00.964Z,15.23
2023-05-06T15:29:07.527Z,15.25
2023-05-06T15:31:11.404Z,15.27
2023-05-06T15:33:15.355Z,15.22
2023-05-06T15:35:19.105Z,15.21
2023-05-06T15:37:22.655Z,15.17
2023-05-06T15:39:26.610Z,15.17
2023-05-06T15:41:32.512Z,15.16
2023-05-06T15:43:38.120Z,15.13
2023-05-06T15:45:44.326Z,15.14
2023-05-06T15:47:48.877Z,15.15
2023-05-06T15:49:54.791Z,15.20
2023-05-06T15:52:01.092Z,15.21
2023-05-06T15:54:05.323Z,15.24
2023-05-06T15:56:18.191Z,15.30
2023-05-06T15:58:22.702Z,15.31
2023-05-06T16:00:27.976Z,15.36
2023-05-06T16:02:34.161Z,15.34
2023-05-06T16:04:38.055Z,15.31
2023-05-06T16:06:41.788Z,15.32
2023-05-06T16:08:45.385Z,15.35
2023-05-06T16:10:48.891Z,15.39
2023-05-06T16:12:52.507Z,15.36
2023-05-06T16:14:56.374Z,15.34
2023-05-06T16:16:59.984Z,15.33
2023-05-06T16:19:05.386Z,15.32
2023-05-06T16:21:09.064Z,15.29
2023-05-06T16:23:13.747Z,15.30
2023-05-06T16:25:17.663Z,15.33
2023-05-06T16:27:22.990Z,15.38
2023-05-06T16:29:26.792Z,15.45
2023-05-06T16:31:30.770Z,15.52
2023-05-06T16:33:34.504Z,15.62
2023-05-06T16:35:39.640Z,15.68
2023-05-06T16:37:44.730Z,15.69
2023-05-06T16:39:48.443Z,15.69
2023-05-06T16:41:57.880Z,15.65
2023-05-06T16:44:01.871Z,15.66
2023-05-06T16:46:06.167Z,15.67
2023-05-06T16:48:09.717Z,15.70
2023-05-06T16:50:14.285Z,15.72
2023-05-06T16:52:19.738Z,15.73
2023-05-06T16:54:23.308Z,15.74
2023-05-06T16:56:36.672Z,15.76
2023-05-06T16:58:48.010Z,15.74
2023-05-06T17:00:54.507Z,15.76
2023-05-06T17:02:58.823Z,15.79
2023-05-06T17:05:02.609Z,15.82
2023-05-06T17:07:06.292Z,15.84
2023-05-06T17:09:11.450Z,15.86
2023-05-06T17:11:15.209Z,15.92
2023-05-06T17:13:19.097Z,15.96
2023-05-06T17:15:23.056Z,15.97
2023-05-06T17:17:29.014Z,15.99
2023-05-06T17:19:32.796Z,16.00
2023-05-06T17:21:36.478Z,15.96
2023-05-06T17:23:40.408Z,15.95
2023-05-06T17:25:45.915Z,15.93
2023-05-06T17:27:49.620Z,15.83
2023-05-06T17:29:53.552Z,15.78
2023-05-06T17:31:57.198Z,15.71
2023-05-06T17:34:00.789Z,15.61
2023-05-06T17:36:04.388Z,15.56
2023-05-06T17:38:08.060Z,15.56
2023-05-06T17:40:13.176Z,15.59
2023-05-06T17:42:18.707Z,15.55
2023-05-06T17:44:23.200Z,15.53
2023-05-06T17:46:30.683Z,15.53
2023-05-06T17:48:34.880Z,15.54
2023-05-06T17:50:38.593Z,15.56
2023-05-06T17:52:42.413Z,15.59
2023-05-06T17:54:49.489Z,15.55
2023-05-06T17:56:56.803Z,15.58
2023-05-06T17:59:02.801Z,15.59
2023-05-06T18:01:06.877Z,15.59
2023-05-06T18:03:11.676Z,15.57
2023-05-06T18:05:15.129Z,15.53
2023-05-06T18:07:18.843Z,15.51
2023-05-06T18:09:22.533Z,15.51
2023-05-06T18:11:26.361Z,15.50
2023-05-06T18:13:30.102Z,15.51
2023-05-06T18:15:35.385Z,15.51
2023-05-06T18:17:39.179Z,15.51
2023-05-06T18:19:42.900Z,15.51
2023-05-06T18:21:47.185Z,15.51
2023-05-06T18:23:53.606Z,15.51
2023-05-06T18:26:05.346Z,15.51
2023-05-06T18:28:08.939Z,15.52
2023-05-06T18:30:13.426Z,15.51
2023-05-06T18:32:18.706Z,15.51
2023-05-06T18:34:22.826Z,15.50
2023-05-06T18:36:27.105Z,15.48
2023-05-06T18:38:31.014Z,15.44
2023-05-06T18:40:35.361Z,15.42
2023-05-06T18:42:39.786Z,15.37
2023-05-06T18:44:44.346Z,15.34
2023-05-06T18:46:49.013Z,15.31
2023-05-06T18:48:56.381Z,15.28
2023-05-06T18:51:12.255Z,15.22
2023-05-06T18:53:16.874Z,15.20
2023-05-06T18:55:20.980Z,15.17
2023-05-06T18:57:26.710Z,15.14
2023-05-06T18:59:30.940Z,15.11
2023-05-06T19:01:34.880Z,15.09
2023-05-06T19:03:40.070Z,15.05
2023-05-06T19:05:45.213Z,15.02
2023-05-06T19:07:49.373Z,15.00
2023-05-06T19:09:53.382Z,14.97
2023-05-06T19:11:56.950Z,14.96
2023-05-06T19:14:00.850Z,14.92
2023-05-06T19:16:04.632Z,14.89
2023-05-06T19:18:09.020Z,14.88
2023-05-06T19:20:14.669Z,14.87
2023-05-06T19:22:20.126Z,14.85
2023-05-06T19:24:24.180Z,14.83
2023-05-06T19:26:28.074Z,14.80
2023-05-06T19:28:32.311Z,14.80
2023-05-06T19:30:36.835Z,14.79
2023-05-06T19:32:40.817Z,14.78
2023-05-06T19:34:45.104Z,14.77
2023-05-06T19:36:48.875Z,14.75
2023-05-06T19:38:54.186Z,14.74
2023-05-06T19:40:58.007Z,14.73
2023-05-06T19:43:04.340Z,14.72
2023-05-06T19:45:09.596Z,14.71
2023-05-06T19:47:14.321Z,14.71
2023-05-06T19:49:18.212Z,14.67
2023-05-06T19:51:22.093Z,14.65
2023-05-06T19:53:25.901Z,14.62
2023-05-06T19:55:31.329Z,14.60
2023-05-06T19:57:34.943Z,14.57
2023-05-06T19:59:38.800Z,14.53
2023-05-06T20:01:42.752Z,14.51
2023-05-06T20:03:46.846Z,14.48
2023-05-06T20:05:50.579Z,14.44
2023-05-06T20:07:55.594Z,14.42
2023-05-06T20:09:59.423Z,14.40
2023-05-06T20:12:04.687Z,14.38
2023-05-06T20:14:08.470Z,14.37
2023-05-06T20:16:12.769Z,14.35
2023-05-06T20:18:16.543Z,14.33
2023-05-06T20:20:20.619Z,14.29
2023-05-06T20:22:24.375Z,14.27
2023-05-06T20:24:29.872Z,14.21
2023-05-06T20:26:34.078Z,14.19
2023-05-06T20:28:39.501Z,14.16
2023-05-06T20:30:43.501Z,14.14
2023-05-06T20:32:49.554Z,14.10
2023-05-06T20:34:55.075Z,14.08
2023-05-06T20:37:00.107Z,14.05
2023-05-06T20:39:03.652Z,14.03
2023-05-06T20:41:07.354Z,13.99
2023-05-06T20:43:11.274Z,13.99
2023-05-06T20:45:16.350Z,13.96
2023-05-06T20:47:20.085Z,13.93
2023-05-06T20:49:23.941Z,13.90
2023-05-06T20:51:29.074Z,13.85
2023-05-06T20:53:32.860Z,13.79
2023-05-06T20:55:36.740Z,13.74
2023-05-06T20:57:45.319Z,13.69
2023-05-06T20:59:51.365Z,13.64
2023-05-06T21:01:56.513Z,13.58
2023-05-06T21:04:01.586Z,13.54
2023-05-06T21:06:05.573Z,13.47
2023-05-06T21:08:09.429Z,13.42
2023-05-06T21:10:13.370Z,13.38
2023-05-06T21:12:17.340Z,13.33
2023-05-06T21:14:21.164Z,13.30
2023-05-06T21:16:25.052Z,13.26
2023-05-06T21:18:30.562Z,13.16
2023-05-06T21:20:34.744Z,13.14
2023-05-06T21:22:38.776Z,13.11
2023-05-06T21:24:42.863Z,13.08
2023-05-06T21:26:46.884Z,13.06
2023-05-06T21:28:52.585Z,13.03
2023-05-06T21:30:56.539Z,12.99
2023-05-06T21:33:03.046Z,12.97
2023-05-06T21:35:09.634Z,12.94
2023-05-06T21:37:13.615Z,12.90
2023-05-06T21:39:17.645Z,12.87
2023-05-06T21:41:21.463Z,12.84
2023-05-06T21:43:25.051Z,12.81
2023-05-06T21:45:29.371Z,12.79
2023-05-06T21:47:33.365Z,12.75
2023-05-06T21:49:37.313Z,12.72
2023-05-06T21:51:43.131Z,12.66
2023-05-06T21:53:50.838Z,12.59
2023-05-06T21:55:54.757Z,12.56
2023-05-06T21:57:58.761Z,12.54
2023-05-06T22:00:08.385Z,12.53
2023-05-06T22:02:12.646Z,12.52
2023-05-06T22:04:16.977Z,12.49
2023-05-06T22:06:20.936Z,12.45
2023-05-06T22:08:26.267Z,12.42
2023-05-06T22:10:30.068Z,12.39
2023-05-06T22:12:34.293Z,12.34
2023-05-06T22:14:41.434Z,12.30
2023-05-06T22:16:46.674Z,12.24
2023-05-06T22:18:52.094Z,12.19
2023-05-06T22:20:58.013Z,12.17
2023-05-06T22:23:02.148Z,12.17
2023-05-06T22:25:09.006Z,12.18
2023-05-06T22:27:13.608Z,12.18
2023-05-06T22:29:17.686Z,12.18
2023-05-06T22:31:22.429Z,12.19
2023-05-06T22:33:27.456Z,12.17
2023-05-06T22:35:31.590Z,12.17
2023-05-06T22:37:35.449Z,12.16
2023-05-06T22:39:39.430Z,12.17
2023-05-06T22:41:44.938Z,12.16
2023-05-06T22:43:49.303Z,12.08
2023-05-06T22:45:53.404Z,12.06
2023-05-06T22:47:57.335Z,12.08
2023-05-06T22:50:01.483Z,12.10
2023-05-06T22:52:05.990Z,12.12
2023-05-06T22:54:09.954Z,12.10
2023-05-06T22:56:14.068Z,12.03
2023-05-06T22:58:20.046Z,11.98
2023-05-06T23:00:24.342Z,11.93
2023-05-06T23:02:28.769Z,11.92
2023-05-06T23:04:33.105Z,11.94
2023-05-06T23:06:36.922Z,12.02
2023-05-06T23:08:41.159Z,12.09
2023-05-06T23:10:45.196Z,12.16
2023-05-06T23:12:49.151Z,12.22
2023-05-06T23:14:54.495Z,12.27
2023-05-06T23:16:58.008Z,12.32
2023-05-06T23:19:01.694Z,12.35
2023-05-06T23:21:05.573Z,12.34
2023-05-06T23:23:10.836Z,12.36
2023-05-06T23:25:15.633Z,12.40
2023-05-06T23:27:20.143Z,12.44
2023-05-06T23:29:23.987Z,12.48
2023-05-06T23:31:29.156Z,12.52
2023-05-06T23:33:32.837Z,12.58
2023-05-06T23:35:36.669Z,12.64
2023-05-06T23:37:40.401Z,12.69
2023-05-06T23:39:44.007Z,12.75
2023-05-06T23:41:47.789Z,12.81
2023-05-06T23:43:51.361Z,12.84
2023-05-06T23:45:55.163Z,12.88
2023-05-06T23:48:00.280Z,12.90
2023-05-06T23:50:03.918Z,12.94
2023-05-06T23:52:07.727Z,12.98
2023-05-06T23:54:11.763Z,12.99
2023-05-06T23:56:15.584Z,13.01
2023-05-06T23:58:19.397Z,13.01
